Time;durP1;ratioP1;P1;durP2;ratioP2;P2;SDS_P1;SDS_P2;PMS_P1;PMS_P2;Temp;Humidity;BMP_temperature;BMP_pressure;BME280_temperature;BME280_humidity;BME280_pressure;Samples;Min_cycle;Max_cycle;Signal;HPM_P1;HPM_P2
2021/04/05 00:00:29;;;;;;;7.80;7.10;;;;;;;20.14;23.37;94211.69;5092643;28;20048;-48
2021/04/05 00:02:57;;;;;;;7.93;7.13;;;;;;;20.60;22.66;94217.91;5075325;28;20041;-47
2021/04/05 00:05:30;;;;;;;8.32;7.53;;;;;;;20.11;23.31;94215.81;5075113;28;20048;-47
2021/04/05 00:07:57;;;;;;;;;;;;;;;20.19;23.29;94225.44;5075699;28;20044;-52
2021/04/05 00:10:36;;;;;;;8.07;7.28;;;;;;;20.49;23.08;94219.56;5074660;28;19912;-48
2021/04/05 00:13:07;;;;;;;8.10;7.30;;;;;;;20.74;22.78;94220.78;5075109;28;20063;-49
2021/04/05 00:15:34;;;;;;;8.68;7.78;;;;;;;20.49;23.13;94216.91;5075007;28;20056;-47
2021/04/05 00:18:02;;;;;;;8.30;7.40;;;;;;;21.18;22.00;94215.06;5092104;28;20063;-50
2021/04/05 00:20:35;;;;;;;8.60;7.70;;;;;;;20.43;22.49;94223.66;5094850;28;20052;-52
2021/04/05 00:23:02;;;;;;;8.25;7.45;;;;;;;20.97;22.42;94220.03;5095177;28;20051;-49
2021/04/05 00:25:30;;;;;;;8.25;7.45;;;;;;;21.68;20.99;94221.13;5095096;28;20044;-48
2021/04/05 00:27:57;;;;;;;8.77;7.78;;;;;;;21.31;21.36;94219.06;5095237;28;20048;-49
2021/04/05 00:30:28;;;;;;;8.48;7.70;;;;;;;21.27;22.07;94215.59;5093482;28;20048;-48
2021/04/05 00:32:55;;;;;;;8.43;7.47;;;;;;;21.53;21.34;94218.25;5075034;28;20044;-49
2021/04/05 00:35:28;;;;;;;8.00;7.18;;;;;;;20.78;22.75;94223.50;5074482;28;20458;-48
2021/04/05 00:37:57;;;;;;;7.47;6.78;;;;;;;21.06;21.81;94229.28;5074244;28;20053;-50
2021/04/05 00:40:31;;;;;;;7.85;7.05;;;;;;;20.97;22.18;94220.03;5073868;28;20048;-48
2021/04/05 00:42:58;;;;;;;8.65;7.78;;;;;;;20.52;22.49;94227.59;5074243;28;20056;-53
2021/04/05 00:45:25;;;;;;;8.25;7.50;;;;;;;20.57;22.38;94223.91;5079868;28;20056;-47
2021/04/05 00:47:54;;;;;;;9.85;8.63;;;;;;;20.68;22.30;94230.16;5078842;28;20044;-50
2021/04/05 00:50:32;;;;;;;8.93;7.80;;;;;;;20.76;22.19;94226.50;5074481;28;20459;-50
2021/04/05 00:52:59;;;;;;;8.85;7.95;;;;;;;20.42;22.67;94227.41;5073624;28;20041;-51
2021/04/05 00:55:28;;;;;;;8.43;7.50;;;;;;;20.62;22.47;94215.66;5073232;28;20085;-47
2021/04/05 00:57:57;;;;;;;8.55;7.70;;;;;;;20.59;22.61;94222.44;5074417;28;20087;-50
2021/04/05 01:00:37;;;;;;;8.88;7.50;;;;;;;20.51;22.65;94220.00;5074487;28;20044;-51
2021/04/05 01:03:05;;;;;;;9.00;8.10;;;;;;;20.74;22.62;94220.78;5074672;28;20045;-49
2021/04/05 01:05:33;;;;;;;8.85;7.90;;;;;;;20.42;22.92;94222.09;5074326;28;20059;-51
2021/04/05 01:08:01;;;;;;;7.85;7.05;;;;;;;20.60;22.70;94216.00;5074627;28;20045;-50
2021/04/05 01:10:28;;;;;;;7.95;7.13;;;;;;;20.50;22.70;94223.75;5074137;28;20048;-49
2021/04/05 01:12:56;;;;;;;8.35;7.47;;;;;;;20.60;22.85;94223.22;5074488;28;20079;-49
2021/04/05 01:15:24;;;;;;;7.78;6.85;;;;;;;20.67;22.42;94223.31;5074467;28;20482;-52
2021/04/05 01:17:52;;;;;;;8.20;7.25;;;;;;;20.32;22.83;94224.19;5089756;28;20454;-49
2021/04/05 01:20:20;;;;;;;8.15;7.35;;;;;;;20.47;22.48;94227.13;5094800;28;20048;-50
2021/04/05 01:22:49;;;;;;;8.45;7.53;;;;;;;20.49;22.52;94227.53;5096629;28;20051;-47
2021/04/05 01:25:18;;;;;;;8.65;7.78;;;;;;;20.46;22.38;94225.59;5097865;28;20465;-48
2021/04/05 01:27:45;;;;;;;8.57;7.68;;;;;;;20.36;22.75;94229.56;5098345;28;20044;-48
2021/04/05 01:30:28;;;;;;;8.38;7.57;;;;;;;20.53;22.53;94229.13;5098309;28;20048;-49
2021/04/05 01:33:14;;;;;;;8.32;7.45;;;;;;;21.28;21.75;94224.34;5097927;28;20426;-49
2021/04/05 01:35:49;;;;;;;8.15;7.35;;;;;;;21.03;22.01;94224.69;5098072;28;20048;-50
2021/04/05 01:38:19;;;;;;;8.43;7.53;;;;;;;20.43;22.54;94234.25;5098062;28;20048;-49
2021/04/05 01:40:54;;;;;;;7.90;7.10;;;;;;;21.07;21.88;94235.38;5098033;28;20052;-47
2021/04/05 01:43:21;;;;;;;7.93;7.13;;;;;;;20.71;22.29;94232.13;5097877;28;20047;-49
2021/04/05 01:45:49;;;;;;;8.02;7.30;;;;;;;20.73;22.62;94227.22;5097917;28;20056;-49
2021/04/05 01:48:16;;;;;;;8.63;7.82;;;;;;;20.30;23.06;94236.28;5078544;28;20049;-51
2021/04/05 01:50:43;;;;;;;8.50;7.63;;;;;;;20.91;22.42;94236.28;5076033;28;20051;-48
2021/04/05 01:53:11;;;;;;;9.15;8.00;;;;;;;20.75;22.84;94240.91;5077547;28;20047;-50
2021/04/05 01:55:38;;;;;;;9.20;7.70;;;;;;;21.15;21.59;94232.50;5077675;28;20059;-50
2021/04/05 01:58:06;;;;;;;8.18;7.25;;;;;;;20.74;22.16;94226.09;5076308;28;20044;-49
2021/04/05 02:00:37;;;;;;;8.65;7.82;;;;;;;20.24;22.75;94227.81;5077447;28;20055;-49
2021/04/05 02:03:07;;;;;;;8.95;7.95;;;;;;;20.55;22.31;94231.44;5077264;28;20053;-50
2021/04/05 02:05:43;;;;;;;8.75;7.85;;;;;;;20.46;22.13;94238.88;5077367;28;20055;-50
2021/04/05 02:08:10;;;;;;;9.35;8.25;;;;;;;20.56;21.84;94225.81;5077400;28;20040;-49
2021/04/05 02:10:38;;;;;;;9.05;7.80;;;;;;;21.43;20.69;94237.50;5078371;28;20051;-48
2021/04/05 02:13:06;;;;;;;8.25;7.45;;;;;;;20.94;21.04;94224.94;5075928;28;20044;-48
2021/04/05 02:15:34;;;;;;;8.95;7.40;;;;;;;21.15;21.09;94221.09;5076147;28;20064;-49
2021/04/05 02:18:02;;;;;;;7.97;7.20;;;;;;;20.52;22.02;94221.53;5092970;28;20059;-50
2021/04/05 02:20:30;;;;;;;8.52;7.72;;;;;;;21.13;20.73;94223.34;5097231;28;20051;-49
2021/04/05 02:22:59;;;;;;;9.02;7.82;;;;;;;21.96;19.83;94221.50;5097034;28;20048;-48
2021/04/05 02:25:28;;;;;;;8.95;8.05;;;;;;;21.48;20.38;94229.22;5096701;28;20044;-51
2021/04/05 02:27:56;;;;;;;8.10;7.35;;;;;;;21.75;20.45;94223.88;5096156;28;20359;-49
2021/04/05 02:30:27;;;;;;;9.02;8.13;;;;;;;20.82;20.98;94222.47;5097004;28;20051;-49
2021/04/05 02:33:01;;;;;;;9.57;8.57;;;;;;;20.85;21.25;94219.09;5096769;28;20048;-48
2021/04/05 02:35:31;;;;;;;9.95;8.93;;;;;;;20.83;21.68;94220.56;5097030;28;20040;-50
2021/04/05 02:38:02;;;;;;;9.88;8.32;;;;;;;20.32;21.71;94240.13;5096892;28;20336;-49
2021/04/05 02:40:31;;;;;;;9.48;8.57;;;;;;;20.68;21.73;94224.84;5096841;28;20336;-55
2021/04/05 02:42:59;;;;;;;9.68;8.27;;;;;;;20.41;21.89;94231.97;5096635;28;20051;-50
2021/04/05 02:45:27;;;;;;;9.43;8.52;;;;;;;20.33;22.37;94236.34;5096636;28;20059;-48
2021/04/05 02:47:56;;;;;;;9.68;8.77;;;;;;;20.11;22.54;94226.44;5081084;28;20465;-48
2021/04/05 02:50:26;;;;;;;10.52;9.43;;;;;;;20.83;21.16;94239.94;5095614;28;20047;-50
2021/04/05 02:52:56;;;;;;;9.25;8.18;;;;;;;20.63;20.94;94235.78;5078093;28;20056;-49
2021/04/05 02:55:24;;;;;;;9.45;8.43;;;;;;;20.55;21.60;94236.75;5076218;28;20114;-50
2021/04/05 02:57:52;;;;;;;10.68;8.45;;;;;;;21.01;20.72;94232.25;5076234;28;20370;-52
2021/04/05 03:00:20;;;;;;;9.48;8.57;;;;;;;20.45;21.53;94238.09;5075149;28;20055;-48
2021/04/05 03:02:49;;;;;;;9.35;8.45;;;;;;;19.98;22.19;94247.00;5076315;28;20055;-49
2021/04/05 03:05:22;;;;;;;9.15;8.25;;;;;;;19.89;22.02;94240.38;5075255;28;20044;-49
2021/04/05 03:07:51;;;;;;;8.70;7.85;;;;;;;20.26;21.57;94252.13;5076238;28;20040;-51
2021/04/05 03:10:25;;;;;;;8.80;8.00;;;;;;;20.73;21.41;94248.47;5076166;28;20041;-49
2021/04/05 03:12:57;;;;;;;8.80;7.80;;;;;;;20.15;22.23;94245.84;5075889;28;20055;-49
2021/04/05 03:15:25;;;;;;;9.32;8.43;;;;;;;20.22;21.74;94243.31;5075977;28;20048;-48
2021/04/05 03:17:57;;;;;;;9.13;8.05;;;;;;;20.50;21.24;94245.00;5090219;28;20059;-51
2021/04/05 03:20:28;;;;;;;8.73;7.82;;;;;;;20.70;21.37;94243.88;5096002;28;20044;-48
2021/04/05 03:22:56;;;;;;;8.85;8.02;;;;;;;20.10;21.81;94246.13;5096075;28;20044;-50
2021/04/05 03:25:24;;;;;;;9.73;8.82;;;;;;;20.35;21.64;94248.50;5096054;28;20040;-50
2021/04/05 03:27:51;;;;;;;10.05;8.63;;;;;;;21.18;20.33;94246.97;5095889;28;20057;-52
2021/04/05 03:30:26;;;;;;;10.80;8.50;;;;;;;20.51;21.54;94251.84;5096055;28;20747;-48
2021/04/05 03:33:01;;;;;;;9.45;8.38;;;;;;;20.36;21.41;94244.72;5095044;28;20052;-49
2021/04/05 03:35:36;;;;;;;9.35;8.43;;;;;;;20.27;21.98;94243.03;5095922;28;20389;-48
2021/04/05 03:38:04;;;;;;;9.25;8.35;;;;;;;20.54;21.19;94245.84;5091566;28;20052;-51
2021/04/05 03:40:31;;;;;;;10.13;9.13;;;;;;;19.91;21.70;94238.91;5074779;28;20056;-49
2021/04/05 03:43:07;;;;;;;10.23;9.15;;;;;;;19.66;21.91;94256.16;5074724;28;20359;-49
2021/04/05 03:45:44;;;;;;;10.82;9.60;;;;;;;19.81;21.72;94252.72;5073945;28;20485;-56
2021/04/05 03:48:11;;;;;;;11.32;10.00;;;;;;;20.84;20.19;94248.69;5075031;28;20067;-48
2021/04/05 03:50:51;;;;;;;11.00;9.90;;;;;;;20.29;21.03;94251.41;5074195;28;20453;-49
2021/04/05 03:53:46;;;;;;;10.93;9.88;;;;;;;21.10;19.84;94254.06;5074230;28;20047;-48
2021/04/05 03:56:18;;;;;;;11.20;10.07;;;;;;;20.79;19.89;94247.06;5075302;28;20047;-50
2021/04/05 03:58:52;;;;;;;12.02;10.13;;;;;;;18.33;22.59;94242.66;5077947;28;20048;-50
2021/04/05 04:01:24;;;;;;;11.38;10.20;;;;;;;20.02;21.16;94241.75;5093092;28;20047;-50
2021/04/05 04:04:04;;;;;;;12.65;10.23;;;;;;;20.76;19.89;94244.34;5094399;28;20055;-48
2021/04/05 04:06:39;;;;;;;11.98;10.35;;;;;;;20.56;20.29;94240.97;5094281;28;20054;-49
2021/04/05 04:09:07;;;;;;;11.82;10.38;;;;;;;20.66;19.93;94235.06;5083207;28;20036;-51
2021/04/05 04:11:36;;;;;;;11.77;10.57;;;;;;;20.65;19.83;94244.16;5074190;28;20045;-48
2021/04/05 04:14:05;;;;;;;12.15;10.85;;;;;;;20.30;20.38;94247.66;5073909;28;20065;-49
2021/04/05 04:16:33;;;;;;;11.90;10.70;;;;;;;20.01;20.48;94261.47;5086119;28;20057;-47
2021/04/05 04:19:06;;;;;;;11.40;10.20;;;;;;;20.47;20.03;94251.03;5083534;28;20040;-48
2021/04/05 04:21:36;;;;;;;12.75;11.45;;;;;;;20.31;20.21;94251.09;5093884;28;20521;-49
2021/04/05 04:24:04;;;;;;;12.55;11.35;;;;;;;19.82;20.73;94256.16;5094416;28;20048;-49
2021/04/05 04:26:33;;;;;;;12.38;11.18;;;;;;;20.55;19.84;94258.00;5076684;28;20055;-48
2021/04/05 04:29:00;;;;;;;14.25;12.75;;;;;;;17.81;22.91;94249.53;5092374;28;20040;-49
2021/04/05 04:31:27;;;;;;;14.07;12.57;;;;;;;17.29;23.86;94256.59;5092894;28;20048;-52
2021/04/05 04:33:55;;;;;;;14.65;13.15;;;;;;;16.92;23.97;94253.94;5093733;28;20047;-53
2021/04/05 04:36:26;;;;;;;13.18;11.88;;;;;;;18.67;22.34;94257.94;5095066;28;20386;-44
2021/04/05 04:38:56;;;;;;;14.82;13.23;;;;;;;19.78;20.97;94257.94;5094406;28;20122;-48
2021/04/05 04:41:32;;;;;;;16.17;13.45;;;;;;;19.92;20.55;94252.94;5091145;28;20040;-54
2021/04/05 04:44:04;;;;;;;14.20;12.80;;;;;;;20.38;20.09;94255.75;5090111;28;20044;-46
2021/04/05 04:46:32;;;;;;;14.30;12.80;;;;;;;19.64;21.01;94261.06;5089669;28;20040;-50
2021/04/05 04:49:09;;;;;;;13.88;12.40;;;;;;;20.29;20.62;94263.91;5074400;28;20369;-44
2021/04/05 04:51:38;;;;;;;13.77;12.38;;;;;;;19.93;20.40;94265.84;5074895;28;20040;-45
2021/04/05 04:54:07;;;;;;;13.98;12.50;;;;;;;19.79;20.91;94270.09;5073633;28;20053;-44
2021/04/05 04:56:35;;;;;;;13.52;12.07;;;;;;;20.13;20.15;94269.31;5075137;28;20055;-44
2021/04/05 04:59:04;;;;;;;14.07;12.52;;;;;;;17.57;23.12;94252.19;5083284;28;20052;-45
2021/04/05 05:01:33;;;;;;;15.27;12.80;;;;;;;16.98;24.12;94251.84;5098536;28;20044;-45
2021/04/05 05:04:20;;;;;;;16.13;12.90;;;;;;;16.96;24.78;94260.09;5098675;28;20051;-44
2021/04/05 05:06:48;;;;;;;14.85;12.75;;;;;;;17.05;24.41;94258.13;5097488;28;20078;-43
2021/04/05 05:09:16;;;;;;;14.32;12.75;;;;;;;17.06;24.11;94254.38;5086960;28;20075;-44
2021/04/05 05:11:43;;;;;;;16.10;13.07;;;;;;;16.91;24.79;94268.22;5078410;28;20469;-46
2021/04/05 05:14:16;;;;;;;16.58;13.50;;;;;;;17.43;24.65;94268.34;5077057;28;20489;-44
2021/04/05 05:16:43;;;;;;;16.27;12.77;;;;;;;17.14;25.29;94266.72;5077200;28;20064;-47
2021/04/05 05:19:13;;;;;;;14.27;12.48;;;;;;;17.76;24.43;94276.19;5087166;28;20044;-45
2021/04/05 05:21:53;;;;;;;14.40;12.70;;;;;;;17.56;24.52;94277.06;5098437;28;20051;-46
2021/04/05 05:24:22;;;;;;;15.82;12.25;;;;;;;17.68;24.64;94274.44;5092721;28;20048;-68
2021/04/05 05:26:50;;;;;;;13.63;12.10;;;;;;;17.98;24.45;94272.31;5078333;28;20375;-64
2021/04/05 05:29:18;;;;;;;16.70;12.90;;;;;;;18.14;23.92;94270.47;5087758;28;20371;-51
2021/04/05 05:31:47;;;;;;;14.18;12.20;;;;;;;18.25;23.57;94278.72;5097658;28;20055;-71
2021/04/05 05:34:16;;;;;;;12.73;11.10;;;;;;;18.62;23.07;94273.28;5097676;28;20392;-63
2021/04/05 05:36:44;;;;;;;13.45;12.05;;;;;;;18.63;23.28;94280.16;5098059;28;20056;-46
2021/04/05 05:39:13;;;;;;;16.17;12.32;;;;;;;18.46;23.59;94278.53;5088393;28;20059;-45
2021/04/05 05:42:04;;;;;;;13.02;11.52;;;;;;;18.59;23.53;94279.25;5077867;28;20079;-46
2021/04/05 05:44:45;;;;;;;12.15;10.95;;;;;;;19.06;23.13;94279.38;5077587;28;20055;-46
2021/04/05 05:47:37;;;;;;;12.50;11.07;;;;;;;18.55;23.70;94283.69;5087797;28;20040;-46
2021/04/05 05:50:20;;;;;;;12.93;11.50;;;;;;;18.86;22.76;94288.31;5097833;28;20044;-58
2021/04/05 05:53:26;;;;;;;13.50;12.13;;;;;;;18.46;24.23;94292.53;5097574;28;20055;-54
2021/04/05 05:56:05;;;;;;;12.73;11.45;;;;;;;18.57;24.14;94297.34;5097940;28;20056;-51
2021/04/05 05:58:51;;;;;;;13.07;11.68;;;;;;;18.62;23.51;94297.09;5097273;28;20048;-46
2021/04/05 06:01:34;;;;;;;12.35;11.13;;;;;;;18.45;23.94;94301.56;5097738;28;20054;-45
2021/04/05 06:04:35;;;;;;;14.15;11.77;;;;;;;18.40;24.02;94296.53;5097585;28;20442;-46
2021/04/05 06:07:27;;;;;;;14.18;11.88;;;;;;;18.33;24.41;94292.94;5096679;28;20051;-46
2021/04/05 06:10:17;;;;;;;15.23;11.93;;;;;;;18.77;23.33;94307.00;5082485;28;20044;-46
2021/04/05 06:13:12;;;;;;;14.55;11.80;;;;;;;18.67;23.94;94302.97;5059386;28;20048;-45
2021/04/05 06:16:07;;;;;;;13.15;11.75;;;;;;;18.99;23.61;94303.78;5076242;28;20061;-46
2021/04/05 06:18:58;;;;;;;14.48;12.35;;;;;;;18.98;23.61;94298.81;5076305;28;20450;-46
2021/04/05 06:21:57;;;;;;;14.35;12.85;;;;;;;18.77;23.45;94307.00;5077187;28;20048;-46
2021/04/05 06:24:52;;;;;;;13.23;11.85;;;;;;;19.00;23.22;94315.16;5076817;28;20044;-46
2021/04/05 06:27:42;;;;;;;14.20;12.45;;;;;;;18.95;23.46;94313.50;5076997;28;20336;-61
2021/04/05 06:30:40;;;;;;;13.55;12.15;;;;;;;19.15;22.96;94316.28;5076778;28;20363;-52
2021/04/05 06:33:26;;;;;;;14.07;12.57;;;;;;;18.80;23.26;94322.22;5025430;28;20079;-46
2021/04/05 06:36:08;;;;;;;15.95;14.25;;;;;;;18.89;23.28;94325.47;5097156;28;20043;-45
2021/04/05 06:38:44;;;;;;;14.52;12.98;;;;;;;19.70;23.84;94315.34;5094866;28;20043;-55
2021/04/05 06:41:26;;;;;;;15.65;14.05;;;;;;;19.57;23.63;94327.97;5082096;28;20048;-45
2021/04/05 06:44:23;;;;;;;16.73;14.98;;;;;;;20.09;23.48;94326.84;5093088;28;20059;-46
2021/04/05 06:47:18;;;;;;;14.73;13.23;;;;;;;19.62;21.81;94314.44;5089260;28;20047;-47
2021/04/05 06:50:09;;;;;;;14.68;13.27;;;;;;;19.69;23.06;94317.25;5092250;28;20327;-46
2021/04/05 06:53:08;;;;;;;14.27;12.88;;;;;;;20.45;23.10;94317.75;5089338;28;20363;-46
2021/04/05 06:55:44;;;;;;;15.95;13.77;;;;;;;20.45;22.21;94325.72;5076483;28;20386;-46
2021/04/05 06:58:24;;;;;;;16.30;13.30;;;;;;;20.05;22.50;94323.34;5091803;28;20054;-46
2021/04/05 07:01:12;;;;;;;14.13;12.73;;;;;;;20.51;22.23;94323.53;5096710;28;20048;-46
2021/04/05 07:04:04;;;;;;;14.43;12.93;;;;;;;19.97;22.69;94326.94;5079780;28;20040;-46
2021/04/05 07:06:49;;;;;;;13.70;12.30;;;;;;;19.76;22.74;94329.13;5076193;28;20056;-46
2021/04/05 07:09:52;;;;;;;14.82;13.32;;;;;;;19.79;22.94;94328.44;5092016;28;20044;-46
2021/04/05 07:12:38;;;;;;;13.68;12.20;;;;;;;19.79;22.93;94333.75;5092111;28;20363;-46
2021/04/05 07:15:22;;;;;;;14.52;13.02;;;;;;;20.12;23.03;94331.47;5076022;28;20060;-46
2021/04/05 07:18:14;;;;;;;13.65;12.18;;;;;;;20.81;22.48;94334.38;5091126;28;20044;-45
2021/04/05 07:21:10;;;;;;;15.40;13.90;;;;;;;20.18;22.87;94340.69;5093004;28;20051;-45
2021/04/05 07:23:46;;;;;;;17.15;14.45;;;;;;;20.11;23.77;94345.84;5094899;28;20055;-60
2021/04/05 07:26:41;;;;;;;33.38;26.25;;;;;;;20.02;23.34;94347.91;5096237;28;20063;-60
2021/04/05 07:29:19;;;;;;;18.33;15.68;;;;;;;19.92;22.71;94348.44;5096092;28;20044;-52
2021/04/05 07:31:57;;;;;;;13.70;12.30;;;;;;;19.95;23.44;94342.44;5096131;28;20063;-52
2021/04/05 07:34:42;;;;;;;14.52;13.02;;;;;;;19.86;23.42;94349.81;5094682;28;20470;-45
2021/04/05 07:37:17;;;;;;;13.15;11.77;;;;;;;19.68;23.37;94344.88;5095905;28;20048;-46
2021/04/05 07:40:10;;;;;;;14.77;12.05;;;;;;;19.71;22.08;94341.53;5094801;28;20059;-45
2021/04/05 07:42:52;;;;;;;13.32;11.93;;;;;;;20.63;21.99;94344.66;5059379;28;20051;-46
2021/04/05 07:45:33;;;;;;;13.38;12.05;;;;;;;20.11;22.82;94355.69;5094681;28;20055;-45
2021/04/05 07:48:27;;;;;;;12.70;11.45;;;;;;;20.13;22.65;94354.22;5077689;28;20040;-45
2021/04/05 07:50:58;;;;;;;14.05;12.05;;;;;;;20.01;22.54;94351.66;5074554;28;20056;-46
2021/04/05 07:53:51;;;;;;;12.18;10.88;;;;;;;20.13;22.16;94356.88;5074180;28;20052;-45
2021/04/05 07:56:22;;;;;;;11.82;10.15;;;;;;;20.38;21.76;94359.28;5074426;28;20336;-47
2021/04/05 07:59:12;;;;;;;13.02;11.57;;;;;;;21.09;22.30;94361.50;5077811;28;20493;-46
2021/04/05 08:01:48;;;;;;;12.43;10.70;;;;;;;21.38;21.66;94340.75;5074400;28;20452;-47
2021/04/05 08:04:21;;;;;;;11.30;9.50;;;;;;;20.90;20.91;94356.97;5074696;28;20469;-46
2021/04/05 08:07:11;;;;;;;;;;;;;;;20.86;20.73;94361.44;5074753;28;20056;-46
2021/04/05 08:09:45;;;;;;;11.32;10.13;;;;;;;20.11;22.19;94363.66;5050781;28;19942;-46
2021/04/05 08:12:36;;;;;;;12.27;9.85;;;;;;;20.08;21.63;94359.81;5074236;28;20051;-45
2021/04/05 08:15:37;;;;;;;11.45;10.30;;;;;;;20.17;22.01;94364.91;5075222;28;20067;-46
2021/04/05 08:18:49;;;;;;;11.98;10.45;;;;;;;20.56;21.47;94357.81;5037197;28;20052;-47
2021/04/05 08:21:20;;;;;;;11.15;9.95;;;;;;;20.91;22.50;94360.38;5071180;28;20052;-46
2021/04/05 08:24:00;;;;;;;10.15;9.15;;;;;;;21.46;21.30;94359.13;5087055;28;20059;-45
2021/04/05 08:26:41;;;;;;;10.52;9.27;;;;;;;22.20;21.01;94357.97;5094082;28;20054;-45
2021/04/05 08:29:12;;;;;;;11.07;9.27;;;;;;;22.24;20.72;94358.81;5083649;28;20041;-46
2021/04/05 08:32:10;;;;;;;10.07;9.05;;;;;;;21.24;21.51;94362.53;5077210;28;20048;-45
2021/04/05 08:34:46;;;;;;;10.23;9.10;;;;;;;20.84;21.23;94350.41;5078784;28;20049;-46
2021/04/05 08:37:33;;;;;;;10.40;9.30;;;;;;;21.07;21.94;94349.66;5079215;28;20040;-47
2021/04/05 08:40:06;;;;;;;11.18;9.25;;;;;;;20.93;21.20;94358.91;5089051;28;20055;-46
2021/04/05 08:42:49;;;;;;;10.38;9.27;;;;;;;20.59;21.76;94359.75;5097949;28;20047;-45
2021/04/05 08:45:25;;;;;;;11.20;9.20;;;;;;;20.58;21.41;94352.91;5099120;28;20063;-46
2021/04/05 08:48:04;;;;;;;9.93;8.80;;;;;;;20.98;20.41;94354.44;5082253;28;20047;-45
2021/04/05 08:50:35;;;;;;;10.23;9.07;;;;;;;20.70;20.77;94358.06;5078725;28;20043;-46
2021/04/05 08:53:03;;;;;;;10.25;9.00;;;;;;;20.65;20.31;94344.31;5077622;28;20048;-45
2021/04/05 08:55:31;;;;;;;10.43;8.77;;;;;;;21.14;21.78;94347.13;5077768;28;20059;-46
2021/04/05 08:58:01;;;;;;;16.83;13.00;;;;;;;21.92;18.33;94343.13;5089783;28;20082;-45
2021/04/05 09:00:30;;;;;;;12.73;10.98;;;;;;;22.58;18.05;94336.41;5093614;28;20121;-46
2021/04/05 09:03:01;;;;;;;9.10;7.60;;;;;;;21.60;18.24;94336.50;5098661;28;20439;-46
2021/04/05 09:05:30;;;;;;;10.55;8.75;;;;;;;22.17;20.15;94340.06;5097877;28;20051;-50
2021/04/05 09:08:11;;;;;;;9.15;8.13;;;;;;;23.22;19.85;94341.72;5097721;28;20051;-46
2021/04/05 09:11:02;;;;;;;7.72;6.93;;;;;;;23.25;17.71;94341.75;5089830;28;20056;-46
2021/04/05 09:13:46;;;;;;;8.32;7.43;;;;;;;23.97;17.36;94341.22;5098374;28;20043;-47
2021/04/05 09:16:34;;;;;;;7.50;6.80;;;;;;;23.29;17.74;94331.88;5096834;28;20070;-45
2021/04/05 09:19:20;;;;;;;8.25;7.45;;;;;;;23.42;17.91;94336.91;5086189;28;20370;-45
2021/04/05 09:22:12;;;;;;;9.90;8.90;;;;;;;23.62;19.47;94332.94;5098419;28;20052;-45
2021/04/05 09:24:42;;;;;;;10.65;9.57;;;;;;;22.75;20.47;94330.53;5097702;28;20052;-47
2021/04/05 09:27:40;;;;;;;10.95;9.32;;;;;;;22.34;20.15;94323.53;5098349;28;20051;-46
2021/04/05 09:30:28;;;;;;;10.07;9.07;;;;;;;21.91;20.33;94320.28;5094262;28;20056;-45
2021/04/05 09:33:01;;;;;;;10.90;9.55;;;;;;;21.77;20.78;94320.06;5098816;28;20052;-46
2021/04/05 09:35:53;;;;;;;10.52;9.52;;;;;;;21.48;21.34;94324.94;5098663;28;20054;-46
2021/04/05 09:38:57;;;;;;;11.15;9.77;;;;;;;21.65;21.33;94333.59;5096002;28;20374;-46
2021/04/05 09:41:46;;;;;;;10.38;9.27;;;;;;;22.35;20.56;94323.19;5077794;28;20056;-45
2021/04/05 09:44:37;;;;;;;9.70;8.63;;;;;;;22.82;19.98;94318.44;5076803;28;20224;-46
2021/04/05 09:47:23;;;;;;;8.75;7.85;;;;;;;22.76;19.68;94318.72;5084632;28;20037;-46
2021/04/05 09:50:10;;;;;;;8.98;8.07;;;;;;;23.57;19.88;94319.94;5079825;28;20037;-47
2021/04/05 09:52:40;;;;;;;8.70;7.78;;;;;;;23.23;19.97;94305.91;5076177;28;20050;-45
2021/04/05 09:55:15;;;;;;;9.48;8.30;;;;;;;22.81;18.50;94303.53;5090572;28;20481;-46
2021/04/05 09:57:49;;;;;;;8.20;7.40;;;;;;;23.09;19.14;94301.19;5096617;28;20366;-46
2021/04/05 10:00:20;;;;;;;9.57;7.55;;;;;;;23.18;16.82;94299.00;5096471;28;20057;-46
2021/04/05 10:03:00;;;;;;;7.95;7.15;;;;;;;22.12;17.87;94293.25;5097737;28;20051;-45
2021/04/05 10:05:28;;;;;;;8.95;8.05;;;;;;;22.25;18.51;94280.44;5080804;28;20051;-45
2021/04/05 10:07:58;;;;;;;7.97;7.18;;;;;;;22.13;18.62;94274.25;5076539;28;20052;-45
2021/04/05 10:10:26;;;;;;;8.23;7.40;;;;;;;22.12;18.42;94267.38;5086385;28;20044;-45
2021/04/05 10:12:54;;;;;;;8.38;7.57;;;;;;;22.18;18.52;94256.41;5097302;28;20055;-44
2021/04/05 10:15:27;;;;;;;8.55;7.60;;;;;;;21.89;19.94;94253.34;5080704;28;20079;-45
2021/04/05 10:17:59;;;;;;;8.05;7.25;;;;;;;23.05;20.67;94255.84;5082998;28;20044;-45
2021/04/05 10:20:31;;;;;;;8.57;6.10;;;;;;;23.48;17.61;94252.78;5097399;28;20055;-46
2021/04/05 10:23:03;;;;;;;7.32;6.55;;;;;;;23.66;18.40;94264.34;5096059;28;20047;-46
2021/04/05 10:25:31;;;;;;;10.45;7.18;;;;;;;24.16;18.71;94254.72;5080940;28;20044;-45
2021/04/05 10:28:00;;;;;;;7.63;6.82;;;;;;;24.14;18.47;94250.88;5096251;28;20040;-46
2021/04/05 10:30:35;;;;;;;6.78;6.18;;;;;;;23.98;17.87;94254.66;5096141;28;20048;-46
2021/04/05 10:33:08;;;;;;;7.38;6.68;;;;;;;23.56;18.32;94249.03;5096013;28;20040;-45
2021/04/05 10:35:37;;;;;;;8.07;6.55;;;;;;;23.41;18.32;94247.38;5094562;28;20055;-45
2021/04/05 10:38:05;;;;;;;7.00;6.30;;;;;;;22.87;18.47;94241.59;5096114;28;20040;-45
2021/04/05 10:40:34;;;;;;;8.90;6.95;;;;;;;22.83;17.64;94234.69;5096685;28;20473;-45
2021/04/05 10:43:19;;;;;;;7.50;6.70;;;;;;;22.54;18.30;94238.94;5096941;28;20051;-46
2021/04/05 10:46:06;;;;;;;7.05;6.30;;;;;;;22.55;18.53;94235.91;5077430;28;20494;-44
2021/04/05 10:48:59;;;;;;;7.03;6.32;;;;;;;22.75;18.77;94242.59;5092560;28;20386;-46
2021/04/05 10:51:40;;;;;;;7.40;6.70;;;;;;;22.20;18.68;94224.88;5095673;28;20551;-45
2021/04/05 10:54:19;;;;;;;8.70;6.57;;;;;;;22.50;18.86;94228.25;5091681;28;20055;-44
2021/04/05 10:57:05;;;;;;;6.78;6.03;;;;;;;22.37;19.27;94218.97;5075291;28;20047;-46
2021/04/05 10:59:46;;;;;;;7.78;5.95;;;;;;;22.44;19.21;94224.38;5075343;28;20052;-45
2021/04/05 11:02:20;;;;;;;9.15;6.35;;;;;;;22.92;18.03;94216.50;5076257;28;20047;-45
2021/04/05 11:04:57;;;;;;;6.22;5.63;;;;;;;22.37;17.76;94209.06;5075046;28;20048;-46
2021/04/05 11:07:26;;;;;;;6.32;5.57;;;;;;;22.78;18.62;94201.88;5076895;28;20040;-46
2021/04/05 11:09:57;;;;;;;6.10;5.50;;;;;;;22.93;17.83;94202.06;5095375;28;20043;-46
2021/04/05 11:12:37;;;;;;;5.55;5.05;;;;;;;22.87;18.05;94192.84;5096191;28;20035;-52
2021/04/05 11:15:17;;;;;;;6.88;5.97;;;;;;;22.69;18.64;94185.44;5094973;28;20051;-46
2021/04/05 11:17:46;;;;;;;9.20;6.43;;;;;;;23.03;19.62;94182.72;5076377;28;20040;-45
2021/04/05 11:20:14;;;;;;;7.25;6.55;;;;;;;23.31;18.69;94174.16;5077292;28;20044;-45
2021/04/05 11:22:42;;;;;;;6.68;5.97;;;;;;;23.00;18.31;94172.78;5092450;28;20054;-46
2021/04/05 11:25:23;;;;;;;7.55;5.15;;;;;;;23.11;18.64;94175.53;5086235;28;20055;-45
2021/04/05 11:27:55;;;;;;;8.13;5.55;;;;;;;22.69;17.66;94168.69;5095106;28;20482;-46
2021/04/05 11:30:24;;;;;;;7.97;6.47;;;;;;;22.88;18.87;94167.72;5078005;28;20056;-46
2021/04/05 11:32:52;;;;;;;7.05;6.25;;;;;;;22.89;18.62;94169.25;5094836;28;20465;-47
2021/04/05 11:35:22;;;;;;;6.78;6.07;;;;;;;22.75;18.54;94160.00;5082575;28;20048;-50
2021/04/05 11:37:52;;;;;;;6.20;5.60;;;;;;;23.12;18.03;94151.16;5075620;28;20048;-45
2021/04/05 11:40:26;;;;;;;7.50;6.57;;;;;;;23.00;17.61;94132.81;5075535;28;20049;-47
2021/04/05 11:42:53;;;;;;;6.70;6.10;;;;;;;23.11;18.52;94140.88;5074414;28;20052;-46
2021/04/05 11:45:28;;;;;;;6.22;5.63;;;;;;;23.01;17.42;94140.44;5086720;28;20052;-46
2021/04/05 11:47:57;;;;;;;7.22;6.10;;;;;;;23.19;17.07;94132.56;5078416;28;20040;-44
2021/04/05 11:50:26;;;;;;;7.32;6.47;;;;;;;23.75;16.68;94127.94;5094585;28;20066;-45
2021/04/05 11:53:17;;;;;;;8.85;6.68;;;;;;;23.89;16.79;94123.41;5093691;28;20462;-46
2021/04/05 11:55:45;;;;;;;9.73;6.88;;;;;;;23.49;19.88;94119.00;5083498;28;20055;-45
2021/04/05 11:58:25;;;;;;;7.75;6.95;;;;;;;23.77;18.34;94112.31;5094550;28;20040;-46
2021/04/05 12:01:01;;;;;;;7.65;6.85;;;;;;;23.69;17.41;94111.53;5094553;28;20051;-46
2021/04/05 12:03:43;;;;;;;8.38;6.55;;;;;;;23.78;17.34;94106.59;5094445;28;20044;-45
2021/04/05 12:06:34;;;;;;;7.22;6.53;;;;;;;24.46;18.61;94102.22;5079402;28;20355;-46